KGGW/GGW METAR and TAF weather

Enter ICAO airport designator
Station Type Date Time Source
KGGW METAR 2022/11/27 08:53 UTC NOAA

KGGW 270853Z AUTO 13007KT 10SM CLR M01/M04 A2976 RMK AO2 SLP101 T10111039 58033


Station Type Date Time Source
KGGW Decoded METAR 2022/11/27 08:53 UTC NOAA

GLASGOW INTERNATIONAL AIRPORT , MT, United States (KGGW) 48-13N 106-37W 693M
Nov 27, 2022 - 03:53 AM EST / 2022.11.27 0853 UTC
Wind: from the SE (130 degrees) at 8 MPH (7 KT):0
Visibility: 10 mile(s):0
Sky conditions: clear
Temperature: 30.0 F (-1.1 C)
Windchill: 23 F (-5 C):1
Dew Point: 25.0 F (-3.9 C)
Relative Humidity: 81%
Pressure (altimeter): 29.76 in. Hg (1007 hPa)
Pressure tendency: 0.10 inches (3.3 hPa) lower than three hours ago
ob: KGGW 270853Z AUTO 13007KT 10SM CLR M01/M04 A2976 RMK AO2 SLP101 T10111039 58033
cycle: 9

Station Type Date Time Source
KGGW TAF 2022/11/27 06:22 UTC NOAA

TAF KGGW 270520Z 2706/2806 16007KT P6SM SCT050 WS020/23040KT
FM271700 21010KT P6SM BKN100
FM272300 23011KT P6SM BKN080 WS020/28045KT
FM280000 25011G19KT P6SM BKN080 WS019/27045KT

Example: see airport list